Time;durP1;ratioP1;P1;durP2;ratioP2;P2;SDS_P1;SDS_P2;PMS_P1;PMS_P2;Temp;Humidity;BMP_temperature;BMP_pressure;BME280_temperature;BME280_humidity;BME280_pressure;Samples;Min_cycle;Max_cycle;Signal;HPM_P1;HPM_P2
2021/09/11 00:01:12;;;;;;;7.45;3.97;;;;;;;;;;5084601;28;20028;-65
2021/09/11 00:03:38;;;;;;;6.18;3.88;;;;;;;;;;5083437;28;20040;-69
2021/09/11 00:06:04;;;;;;;7.30;3.53;;;;;;;;;;5084325;28;20033;-67
2021/09/11 00:08:30;;;;;;;5.38;4.22;;;;;;;;;;5084289;28;20084;-64
2021/09/11 00:10:56;;;;;;;7.05;4.35;;;;;;;;;;5085049;28;20029;-65
2021/09/11 00:13:22;;;;;;;4.43;3.58;;;;;;;;;;5084660;28;20552;-67
2021/09/11 00:15:50;;;;;;;4.45;3.55;;;;;;;;;;5082747;28;20027;-67
2021/09/11 00:18:16;;;;;;;5.28;3.83;;;;;;;;;;5084757;28;20498;-65
2021/09/11 00:20:42;;;;;;;6.53;3.60;;;;;;;;;;5089054;28;20100;-66
2021/09/11 00:23:10;;;;;;;6.05;3.70;;;;;;;;;;5088373;28;20496;-71
2021/09/11 00:25:36;;;;;;;3.40;3.00;;;;;;;;;;5088362;28;20032;-68
2021/09/11 00:28:02;;;;;;;5.68;3.55;;;;;;;;;;5087263;28;20059;-69
2021/09/11 00:30:29;;;;;;;4.88;3.00;;;;;;;;;;5087212;28;20028;-67
2021/09/11 00:32:55;;;;;;;4.20;3.10;;;;;;;;;;5086673;28;20084;-65
2021/09/11 00:35:21;;;;;;;6.38;3.03;;;;;;;;;;5084177;28;20081;-70
2021/09/11 00:37:47;;;;;;;4.07;3.20;;;;;;;;;;5084849;28;20024;-70
2021/09/11 00:40:15;;;;;;;3.20;2.83;;;;;;;;;;5084824;28;20020;-65
2021/09/11 00:42:47;;;;;;;4.95;2.88;;;;;;;;;;5082587;28;20020;-70
2021/09/11 00:45:14;;;;;;;3.90;2.88;;;;;;;;;;5086987;28;20028;-68
2021/09/11 00:47:40;;;;;;;7.28;3.03;;;;;;;;;;5086751;28;20099;-67
2021/09/11 00:50:06;;;;;;;5.03;3.72;;;;;;;;;;5085193;28;20036;-68
2021/09/11 00:52:33;;;;;;;3.78;3.10;;;;;;;;;;5085892;28;20036;-66
2021/09/11 00:54:59;;;;;;;3.22;2.70;;;;;;;;;;5068385;28;20108;-70
2021/09/11 00:57:25;;;;;;;4.15;3.15;;;;;;;;;;5065707;28;20048;-68
2021/09/11 00:59:51;;;;;;;3.90;2.90;;;;;;;;;;5065567;28;20021;-69
2021/09/11 01:02:17;;;;;;;4.65;3.13;;;;;;;;;;5065602;28;20108;-70
2021/09/11 01:04:43;;;;;;;4.32;2.97;;;;;;;;;;5065940;28;20053;-65
2021/09/11 01:07:09;;;;;;;5.53;3.10;;;;;;;;;;5065883;28;20025;-70
2021/09/11 01:09:35;;;;;;;5.90;3.78;;;;;;;;;;5066337;28;20104;-65
2021/09/11 01:12:01;;;;;;;3.33;2.80;;;;;;;;;;5066741;28;20025;-65
2021/09/11 01:14:27;;;;;;;4.55;3.38;;;;;;;;;;5066637;28;20017;-67
2021/09/11 01:16:54;;;;;;;3.85;2.80;;;;;;;;;;5064691;28;20036;-74
2021/09/11 01:19:20;;;;;;;5.35;3.03;;;;;;;;;;5065400;28;20066;-65
2021/09/11 01:21:46;;;;;;;4.32;2.80;;;;;;;;;;5065136;28;20021;-76
2021/09/11 01:24:12;;;;;;;3.95;2.67;;;;;;;;;;5066027;28;20013;-66
2021/09/11 01:26:38;;;;;;;3.90;3.08;;;;;;;;;;5066282;28;20029;-65
2021/09/11 01:29:08;;;;;;;5.18;3.47;;;;;;;;;;5065551;28;20021;-70
2021/09/11 01:31:35;;;;;;;6.20;4.22;;;;;;;;;;5065672;28;20029;-67
2021/09/11 01:34:01;;;;;;;5.78;3.65;;;;;;;;;;5066899;28;20021;-67
2021/09/11 01:36:28;;;;;;;4.80;3.45;;;;;;;;;;5065181;28;20379;-67
2021/09/11 01:38:54;;;;;;;5.78;3.20;;;;;;;;;;5065070;28;20028;-66
2021/09/11 01:41:21;;;;;;;6.65;3.35;;;;;;;;;;5065470;28;20025;-65
2021/09/11 01:43:47;;;;;;;5.82;3.30;;;;;;;;;;5065424;28;20079;-65
2021/09/11 01:46:13;;;;;;;5.50;4.03;;;;;;;;;;5065042;28;20024;-73
2021/09/11 01:48:40;;;;;;;5.97;3.50;;;;;;;;;;5065185;28;20025;-67
2021/09/11 01:51:06;;;;;;;7.55;4.65;;;;;;;;;;5064510;28;20024;-67
2021/09/11 01:53:32;;;;;;;6.15;4.13;;;;;;;;;;5062426;28;20029;-70
2021/09/11 01:55:58;;;;;;;6.30;3.92;;;;;;;;;;5065201;28;20031;-66
2021/09/11 01:58:27;;;;;;;5.15;3.92;;;;;;;;;;5065913;28;20032;-66
2021/09/11 02:00:53;;;;;;;7.13;3.97;;;;;;;;;;5063980;28;20416;-68
2021/09/11 02:03:19;;;;;;;5.75;3.45;;;;;;;;;;5063133;28;20048;-66
2021/09/11 02:05:46;;;;;;;4.03;3.50;;;;;;;;;;5062403;28;20060;-68
2021/09/11 02:08:12;;;;;;;6.50;4.07;;;;;;;;;;5064020;28;20016;-65
2021/09/11 02:10:38;;;;;;;8.18;3.97;;;;;;;;;;5063683;28;20029;-68
2021/09/11 02:13:04;;;;;;;8.05;4.32;;;;;;;;;;5063675;28;20032;-69
2021/09/11 02:15:32;;;;;;;6.28;4.30;;;;;;;;;;5065843;28;20028;-66
2021/09/11 02:17:58;;;;;;;8.18;4.70;;;;;;;;;;5061164;28;20021;-71
2021/09/11 02:20:24;;;;;;;6.53;4.28;;;;;;;;;;5060298;28;20025;-73
2021/09/11 02:22:50;;;;;;;6.03;4.15;;;;;;;;;;5061713;28;20033;-67
2021/09/11 02:25:16;;;;;;;6.78;4.43;;;;;;;;;;5061453;28;20040;-71
2021/09/11 02:27:42;;;;;;;6.15;4.60;;;;;;;;;;5063876;28;20021;-67
2021/09/11 02:30:09;;;;;;;6.05;4.43;;;;;;;;;;5062834;28;20429;-66
2021/09/11 02:32:35;;;;;;;6.88;5.10;;;;;;;;;;5063155;28;20033;-69
2021/09/11 02:35:01;;;;;;;7.20;4.40;;;;;;;;;;5062948;28;20036;-71
2021/09/11 02:37:27;;;;;;;8.98;5.28;;;;;;;;;;5062801;28;20533;-66
2021/09/11 02:39:53;;;;;;;7.70;4.78;;;;;;;;;;5061435;28;20101;-69
2021/09/11 02:42:19;;;;;;;6.65;4.28;;;;;;;;;;5062616;28;20025;-67
2021/09/11 02:44:45;;;;;;;6.45;4.20;;;;;;;;;;5062817;28;20495;-71
2021/09/11 02:47:11;;;;;;;5.28;4.50;;;;;;;;;;5063180;28;20033;-68
2021/09/11 02:49:39;;;;;;;7.80;4.30;;;;;;;;;;5064089;28;20585;-66
2021/09/11 02:52:06;;;;;;;7.35;4.32;;;;;;;;;;5063307;28;20084;-65
2021/09/11 02:54:32;;;;;;;7.30;4.38;;;;;;;;;;5063517;28;20025;-67
2021/09/11 02:56:58;;;;;;;7.50;3.97;;;;;;;;;;5062503;28;20025;-69
2021/09/11 02:59:24;;;;;;;5.75;3.55;;;;;;;;;;5062688;28;20376;-67
2021/09/11 03:01:50;;;;;;;5.28;3.50;;;;;;;;;;5062568;28;20025;-70
2021/09/11 03:04:16;;;;;;;4.85;3.72;;;;;;;;;;5061475;28;20070;-71
2021/09/11 03:06:42;;;;;;;7.10;4.60;;;;;;;;;;5061102;28;20032;-72
2021/09/11 03:09:08;;;;;;;5.63;3.70;;;;;;;;;;5061432;28;20039;-72
2021/09/11 03:11:34;;;;;;;4.95;3.78;;;;;;;;;;5060885;28;20052;-67
2021/09/11 03:14:00;;;;;;;6.22;4.07;;;;;;;;;;5062051;28;20025;-69
2021/09/11 03:16:26;;;;;;;5.50;4.10;;;;;;;;;;5062882;28;20085;-67
2021/09/11 03:18:52;;;;;;;5.15;4.18;;;;;;;;;;5063992;28;20384;-65
2021/09/11 03:21:18;;;;;;;7.78;4.03;;;;;;;;;;5063691;28;20021;-71
2021/09/11 03:23:44;;;;;;;5.55;3.88;;;;;;;;;;5061935;28;20120;-69
2021/09/11 03:26:10;;;;;;;4.97;3.47;;;;;;;;;;5064368;28;20024;-65
2021/09/11 03:28:37;;;;;;;5.88;4.30;;;;;;;;;;5062473;28;20032;-75
2021/09/11 03:31:03;;;;;;;7.40;4.10;;;;;;;;;;5064623;28;20029;-66
2021/09/11 03:33:29;;;;;;;8.45;4.20;;;;;;;;;;5066634;28;20063;-65
2021/09/11 03:35:55;;;;;;;6.75;3.35;;;;;;;;;;5066199;28;20025;-64
2021/09/11 03:38:21;;;;;;;4.40;3.53;;;;;;;;;;5065769;28;20085;-67
2021/09/11 03:40:47;;;;;;;5.47;4.32;;;;;;;;;;5066063;28;20360;-65
2021/09/11 03:43:13;;;;;;;7.57;3.75;;;;;;;;;;5065912;28;20025;-65
2021/09/11 03:45:39;;;;;;;5.82;3.85;;;;;;;;;;5065708;28;20029;-66
2021/09/11 03:48:05;;;;;;;4.63;3.90;;;;;;;;;;5065675;28;20113;-65
2021/09/11 03:50:31;;;;;;;4.97;3.60;;;;;;;;;;5064587;28;20063;-69
2021/09/11 03:52:57;;;;;;;7.03;3.42;;;;;;;;;;5064144;28;20071;-66
2021/09/11 03:55:24;;;;;;;5.28;3.40;;;;;;;;;;5066692;28;20040;-64
2021/09/11 03:57:50;;;;;;;7.95;3.67;;;;;;;;;;5068155;28;20100;-75
2021/09/11 04:00:16;;;;;;;4.38;3.70;;;;;;;;;;5066912;28;20025;-73
2021/09/11 04:02:42;;;;;;;4.13;3.70;;;;;;;;;;5065733;28;20025;-71
2021/09/11 04:05:08;;;;;;;6.20;3.80;;;;;;;;;;5066267;28;20076;-71
2021/09/11 04:07:34;;;;;;;4.32;3.92;;;;;;;;;;5066531;28;20104;-69
2021/09/11 04:10:00;;;;;;;6.13;3.88;;;;;;;;;;5067773;28;20110;-68
2021/09/11 04:12:26;;;;;;;5.10;3.63;;;;;;;;;;5066892;28;20025;-71
2021/09/11 04:14:52;;;;;;;7.35;4.05;;;;;;;;;;5067246;28;20033;-69
2021/09/11 04:17:18;;;;;;;6.13;4.57;;;;;;;;;;5066470;28;20427;-65
2021/09/11 04:19:44;;;;;;;8.25;5.00;;;;;;;;;;5067793;28;20032;-69
2021/09/11 04:22:11;;;;;;;5.80;4.20;;;;;;;;;;5067513;28;20029;-64
2021/09/11 04:24:37;;;;;;;4.25;3.70;;;;;;;;;;5066534;28;20103;-67
2021/09/11 04:27:03;;;;;;;5.97;4.00;;;;;;;;;;5066225;28;20029;-70
2021/09/11 04:29:29;;;;;;;7.25;4.28;;;;;;;;;;5066972;28;20029;-66
2021/09/11 04:31:55;;;;;;;4.95;3.30;;;;;;;;;;5066835;28;20021;-69
2021/09/11 04:34:21;;;;;;;4.18;3.25;;;;;;;;;;5067188;28;20057;-68
2021/09/11 04:36:47;;;;;;;4.82;3.15;;;;;;;;;;5067316;28;20100;-65
2021/09/11 04:39:13;;;;;;;7.55;3.40;;;;;;;;;;5067220;28;20052;-67
2021/09/11 04:41:39;;;;;;;4.05;3.38;;;;;;;;;;5066966;28;20070;-71
2021/09/11 04:44:05;;;;;;;4.80;3.22;;;;;;;;;;5065054;28;20021;-68
2021/09/11 04:46:31;;;;;;;4.95;3.20;;;;;;;;;;5066347;28;20025;-69
2021/09/11 04:48:57;;;;;;;3.92;2.85;;;;;;;;;;5064704;28;20040;-71
2021/09/11 04:51:23;;;;;;;3.47;2.85;;;;;;;;;;5062824;28;20017;-69
2021/09/11 04:53:50;;;;;;;5.18;3.38;;;;;;;;;;5062764;28;20377;-74
2021/09/11 04:56:16;;;;;;;5.38;3.20;;;;;;;;;;5061626;28;20065;-75
2021/09/11 04:58:42;;;;;;;5.50;2.97;;;;;;;;;;5062419;28;20017;-64
2021/09/11 05:01:08;;;;;;;4.20;3.30;;;;;;;;;;5062497;28;20029;-73
2021/09/11 05:03:35;;;;;;;4.85;3.00;;;;;;;;;;5064995;28;20045;-70
2021/09/11 05:06:01;;;;;;;4.30;3.10;;;;;;;;;;5064252;28;20426;-66
2021/09/11 05:08:27;;;;;;;4.18;3.42;;;;;;;;;;5063540;28;20025;-68
2021/09/11 05:10:53;;;;;;;3.83;2.90;;;;;;;;;;5065143;28;20051;-65
2021/09/11 05:13:19;;;;;;;4.65;3.22;;;;;;;;;;5065195;28;20040;-64
2021/09/11 05:15:45;;;;;;;4.18;2.97;;;;;;;;;;5064145;28;20033;-72
2021/09/11 05:18:12;;;;;;;4.55;3.10;;;;;;;;;;5064481;28;20104;-72
2021/09/11 05:20:38;;;;;;;4.18;3.45;;;;;;;;;;5063581;28;20475;-65
2021/09/11 05:23:04;;;;;;;4.65;3.20;;;;;;;;;;5065170;28;20029;-67
2021/09/11 05:25:30;;;;;;;5.25;3.78;;;;;;;;;;5065648;28;20025;-67
2021/09/11 05:27:56;;;;;;;5.32;4.13;;;;;;;;;;5064424;28;20550;-66
2021/09/11 05:30:22;;;;;;;4.35;3.55;;;;;;;;;;5063909;28;20071;-66
2021/09/11 05:32:48;;;;;;;6.35;3.88;;;;;;;;;;5067232;28;20071;-67
2021/09/11 05:35:14;;;;;;;6.38;4.00;;;;;;;;;;5067176;28;20029;-69
2021/09/11 05:37:40;;;;;;;5.72;3.65;;;;;;;;;;5065343;28;20092;-70
2021/09/11 05:40:07;;;;;;;7.43;4.32;;;;;;;;;;5063700;28;20069;-68
2021/09/11 05:42:36;;;;;;;8.25;4.68;;;;;;;;;;5065996;28;20040;-65
2021/09/11 05:45:02;;;;;;;6.28;4.85;;;;;;;;;;5066626;28;20032;-66
2021/09/11 05:47:28;;;;;;;6.63;4.85;;;;;;;;;;5066962;28;20060;-65
2021/09/11 05:49:54;;;;;;;7.65;4.93;;;;;;;;;;5065752;28;20484;-65
2021/09/11 05:52:20;;;;;;;9.15;4.82;;;;;;;;;;5064312;28;20075;-69
2021/09/11 05:54:46;;;;;;;6.72;4.70;;;;;;;;;;5065008;28;20061;-67
2021/09/11 05:57:12;;;;;;;5.72;3.63;;;;;;;;;;5064812;28;20021;-66
2021/09/11 05:59:39;;;;;;;8.15;4.82;;;;;;;;;;5062988;28;20375;-69
2021/09/11 06:02:05;;;;;;;6.45;4.20;;;;;;;;;;5062679;28;20040;-72
2021/09/11 06:04:31;;;;;;;6.20;3.92;;;;;;;;;;5064928;28;20071;-68
2021/09/11 06:06:57;;;;;;;6.00;4.10;;;;;;;;;;5065039;28;20076;-70
2021/09/11 06:09:23;;;;;;;6.75;4.07;;;;;;;;;;5065020;28;20051;-65
2021/09/11 06:11:49;;;;;;;6.43;4.20;;;;;;;;;;5063550;28;20078;-65
2021/09/11 06:14:15;;;;;;;6.63;3.58;;;;;;;;;;5062659;28;20029;-74
2021/09/11 06:16:41;;;;;;;5.80;3.47;;;;;;;;;;5063032;28;20024;-68
2021/09/11 06:19:07;;;;;;;4.32;3.15;;;;;;;;;;5064547;28;20021;-69
2021/09/11 06:21:33;;;;;;;6.60;3.10;;;;;;;;;;5060588;28;20459;-71
2021/09/11 06:23:59;;;;;;;4.63;3.38;;;;;;;;;;5062296;28;20085;-70
2021/09/11 06:26:25;;;;;;;4.72;3.40;;;;;;;;;;5063565;28;20021;-70
2021/09/11 06:28:51;;;;;;;4.75;3.60;;;;;;;;;;5063880;28;20032;-65
2021/09/11 06:31:18;;;;;;;3.97;3.22;;;;;;;;;;5063317;28;20052;-66
2021/09/11 06:33:44;;;;;;;4.55;3.60;;;;;;;;;;5063102;28;20025;-65
2021/09/11 06:36:11;;;;;;;5.20;3.40;;;;;;;;;;5063151;28;20047;-68
2021/09/11 06:38:37;;;;;;;4.40;3.38;;;;;;;;;;5064057;28;20100;-67
2021/09/11 06:41:04;;;;;;;3.95;3.10;;;;;;;;;;5062255;28;20436;-66
2021/09/11 06:43:30;;;;;;;4.90;3.05;;;;;;;;;;5060751;28;20063;-72
2021/09/11 06:45:56;;;;;;;4.38;3.08;;;;;;;;;;5061043;28;20072;-70
2021/09/11 06:48:22;;;;;;;3.85;3.22;;;;;;;;;;5060945;28;20029;-66
2021/09/11 06:50:48;;;;;;;4.22;2.92;;;;;;;;;;5063508;28;20039;-69
2021/09/11 06:53:14;;;;;;;3.20;2.90;;;;;;;;;;5061711;28;20040;-72
2021/09/11 06:55:40;;;;;;;4.70;2.92;;;;;;;;;;5063296;28;20113;-69
2021/09/11 06:58:06;;;;;;;5.88;2.83;;;;;;;;;;5063421;28;20078;-71
2021/09/11 07:00:32;;;;;;;6.40;2.78;;;;;;;;;;5064247;28;20081;-65
2021/09/11 07:02:59;;;;;;;4.05;2.92;;;;;;;;;;5063079;28;20024;-74
2021/09/11 07:05:25;;;;;;;3.97;2.88;;;;;;;;;;5059033;28;20057;-69
2021/09/11 07:07:51;;;;;;;4.88;3.05;;;;;;;;;;5062665;28;20021;-70
2021/09/11 07:10:17;;;;;;;4.60;2.83;;;;;;;;;;5060826;28;20025;-74
2021/09/11 07:12:43;;;;;;;4.60;3.33;;;;;;;;;;5061698;28;20032;-69
2021/09/11 07:15:09;;;;;;;4.15;3.22;;;;;;;;;;5060646;28;20043;-68
2021/09/11 07:17:35;;;;;;;6.03;2.85;;;;;;;;;;5063036;28;20021;-67
2021/09/11 07:20:01;;;;;;;5.00;3.45;;;;;;;;;;5061746;28;20031;-73
2021/09/11 07:22:28;;;;;;;6.55;3.25;;;;;;;;;;5060927;28;20017;-65
2021/09/11 07:24:54;;;;;;;3.08;2.60;;;;;;;;;;5061929;28;20029;-69
2021/09/11 07:27:20;;;;;;;5.13;3.22;;;;;;;;;;5059635;28;20025;-68
2021/09/11 07:29:46;;;;;;;5.80;3.28;;;;;;;;;;5062640;28;20029;-65
2021/09/11 07:32:12;;;;;;;3.60;2.78;;;;;;;;;;5065466;28;20419;-66
2021/09/11 07:34:38;;;;;;;4.28;2.92;;;;;;;;;;5064631;28;20035;-67
2021/09/11 07:37:05;;;;;;;4.30;3.08;;;;;;;;;;5062076;28;20029;-64
2021/09/11 07:39:31;;;;;;;3.75;2.90;;;;;;;;;;5065252;28;20078;-66
2021/09/11 07:41:57;;;;;;;4.72;3.10;;;;;;;;;;5065637;28;20045;-71
2021/09/11 07:44:23;;;;;;;5.25;3.58;;;;;;;;;;5063570;28;20028;-65
2021/09/11 07:46:49;;;;;;;4.43;3.00;;;;;;;;;;5061155;28;20033;-70
2021/09/11 07:49:15;;;;;;;4.45;2.97;;;;;;;;;;5061981;28;20025;-67
2021/09/11 07:51:41;;;;;;;4.72;3.13;;;;;;;;;;5063218;28;20028;-68
2021/09/11 07:54:07;;;;;;;4.63;3.17;;;;;;;;;;5061825;28;20108;-71
2021/09/11 07:56:33;;;;;;;4.65;2.80;;;;;;;;;;5062862;28;20024;-67
2021/09/11 07:58:59;;;;;;;5.13;3.20;;;;;;;;;;5062008;28;20025;-65
2021/09/11 08:01:25;;;;;;;3.42;2.65;;;;;;;;;;5062768;28;20032;-74
2021/09/11 08:03:51;;;;;;;5.18;3.00;;;;;;;;;;5060143;28;20059;-74
2021/09/11 08:06:18;;;;;;;3.22;2.75;;;;;;;;;;5063487;28;20045;-65
2021/09/11 08:08:44;;;;;;;3.83;2.50;;;;;;;;;;5063876;28;20456;-65
2021/09/11 08:11:10;;;;;;;4.00;2.88;;;;;;;;;;5064686;28;20031;-65
2021/09/11 08:13:36;;;;;;;6.03;2.60;;;;;;;;;;5065144;28;20025;-65
2021/09/11 08:16:02;;;;;;;5.28;2.90;;;;;;;;;;5063318;28;20033;-74
2021/09/11 08:18:29;;;;;;;5.35;2.53;;;;;;;;;;5063885;28;20017;-64
2021/09/11 08:20:55;;;;;;;3.78;3.33;;;;;;;;;;5065315;28;20021;-65
2021/09/11 08:23:21;;;;;;;4.60;2.60;;;;;;;;;;5064833;28;20025;-65
2021/09/11 08:25:49;;;;;;;2.92;2.58;;;;;;;;;;5063676;28;20032;-71
2021/09/11 08:28:15;;;;;;;2.78;2.40;;;;;;;;;;5062087;28;20032;-64
2021/09/11 08:30:41;;;;;;;3.42;2.83;;;;;;;;;;5064930;28;20089;-65
2021/09/11 08:33:10;;;;;;;2.92;2.63;;;;;;;;;;5065380;28;20021;-65
2021/09/11 08:35:36;;;;;;;3.45;2.20;;;;;;;;;;5065124;28;20066;-64
2021/09/11 08:38:02;;;;;;;3.05;2.47;;;;;;;;;;5064466;28;20032;-71
2021/09/11 08:40:28;;;;;;;2.78;2.30;;;;;;;;;;5064080;28;20029;-66
2021/09/11 08:42:55;;;;;;;3.28;2.97;;;;;;;;;;5068961;28;20110;-65
2021/09/11 08:45:21;;;;;;;4.25;2.83;;;;;;;;;;5068336;28;20033;-69
2021/09/11 08:47:48;;;;;;;3.45;2.10;;;;;;;;;;5067830;28;20510;-65
2021/09/11 08:50:15;;;;;;;3.58;2.25;;;;;;;;;;5067836;28;20040;-64
2021/09/11 08:52:42;;;;;;;3.63;2.38;;;;;;;;;;5067557;28;20040;-69
2021/09/11 08:55:09;;;;;;;3.15;2.13;;;;;;;;;;5065249;28;20033;-67
2021/09/11 08:57:35;;;;;;;2.22;1.90;;;;;;;;;;5064776;28;20052;-69
2021/09/11 09:00:04;;;;;;;2.50;2.30;;;;;;;;;;5066645;28;20021;-65
2021/09/11 09:02:31;;;;;;;2.30;2.00;;;;;;;;;;5068135;28;20022;-68
2021/09/11 09:04:59;;;;;;;2.72;2.22;;;;;;;;;;5064106;28;20091;-71
2021/09/11 09:07:34;;;;;;;2.10;1.77;;;;;;;;;;5066006;28;20029;-67
2021/09/11 09:10:01;;;;;;;2.35;2.05;;;;;;;;;;5078236;28;20036;-72
2021/09/11 09:12:30;;;;;;;3.05;1.90;;;;;;;;;;5087876;28;20039;-65
2021/09/11 09:15:02;;;;;;;2.97;1.90;;;;;;;;;;5086902;28;20063;-65
2021/09/11 09:17:38;;;;;;;2.72;1.90;;;;;;;;;;5088261;28;20024;-68
2021/09/11 09:20:11;;;;;;;2.47;2.03;;;;;;;;;;5088630;28;20052;-67
2021/09/11 09:22:37;;;;;;;2.10;1.70;;;;;;;;;;5087113;28;20150;-72
2021/09/11 09:25:03;;;;;;;1.88;1.67;;;;;;;;;;5080431;28;20502;-72
2021/09/11 09:27:29;;;;;;;2.55;1.80;;;;;;;;;;5080301;28;20097;-68
2021/09/11 09:30:00;;;;;;;2.58;1.88;;;;;;;;;;5063071;28;20028;-71
2021/09/11 09:32:36;;;;;;;3.97;1.67;;;;;;;;;;5061518;28;20036;-68
2021/09/11 09:35:15;;;;;;;2.38;1.90;;;;;;;;;;5060488;28;20025;-67
2021/09/11 09:37:53;;;;;;;1.98;1.65;;;;;;;;;;5061129;28;20021;-71
2021/09/11 09:40:39;;;;;;;2.85;2.00;;;;;;;;;;5060653;28;20028;-71
2021/09/11 09:43:06;;;;;;;3.25;1.80;;;;;;;;;;5060330;28;20025;-73
2021/09/11 09:45:32;;;;;;;2.30;1.95;;;;;;;;;;5060435;28;20029;-77
2021/09/11 09:47:59;;;;;;;2.22;1.90;;;;;;;;;;5060237;28;20043;-69
2021/09/11 09:50:29;;;;;;;2.63;2.00;;;;;;;;;;5061229;28;20029;-68
2021/09/11 09:52:55;;;;;;;3.28;2.30;;;;;;;;;;5058879;28;20025;-73
2021/09/11 09:55:21;;;;;;;3.22;2.38;;;;;;;;;;5060981;28;20039;-73
2021/09/11 09:57:47;;;;;;;2.83;2.17;;;;;;;;;;5059388;28;20021;-67
2021/09/11 10:00:14;;;;;;;3.25;2.20;;;;;;;;;;5062133;28;20021;-70
2021/09/11 10:02:40;;;;;;;2.40;1.85;;;;;;;;;;5065385;28;20032;-73
2021/09/11 10:05:06;;;;;;;2.00;1.80;;;;;;;;;;5060445;28;20500;-67
2021/09/11 10:07:33;;;;;;;2.33;2.08;;;;;;;;;;5060839;28;20035;-73
2021/09/11 10:10:00;;;;;;;2.08;1.83;;;;;;;;;;5060752;28;20049;-73
2021/09/11 10:12:30;;;;;;;2.10;1.90;;;;;;;;;;5059648;28;20028;-69
2021/09/11 10:15:16;;;;;;;2.65;2.20;;;;;;;;;;5070442;28;20016;-68
2021/09/11 10:17:42;;;;;;;3.10;2.00;;;;;;;;;;5080891;28;20070;-65
2021/09/11 10:20:08;;;;;;;2.67;2.15;;;;;;;;;;5083066;28;20028;-74
2021/09/11 10:22:37;;;;;;;3.63;2.20;;;;;;;;;;5083472;28;20052;-74
2021/09/11 10:25:04;;;;;;;4.10;2.20;;;;;;;;;;5082586;28;20025;-71
2021/09/11 10:27:38;;;;;;;2.00;1.80;;;;;;;;;;5083766;28;20020;-67
2021/09/11 10:30:06;;;;;;;3.78;2.00;;;;;;;;;;5086183;28;20095;-66
2021/09/11 10:32:35;;;;;;;2.47;2.22;;;;;;;;;;5074130;28;20038;-66
2021/09/11 10:35:02;;;;;;;2.70;2.20;;;;;;;;;;5060660;28;20025;-72
2021/09/11 10:37:33;;;;;;;4.07;1.67;;;;;;;;;;5061452;28;20032;-69
2021/09/11 10:40:18;;;;;;;2.83;1.80;;;;;;;;;;5058345;28;20025;-70
2021/09/11 10:43:06;;;;;;;3.10;1.85;;;;;;;;;;5059021;28;20025;-70
2021/09/11 10:45:44;;;;;;;1.95;1.75;;;;;;;;;;5058395;28;20036;-71
2021/09/11 10:48:30;;;;;;;1.77;1.65;;;;;;;;;;5057455;28;20021;-67
2021/09/11 10:50:56;;;;;;;;;;;;;;;;;;5058668;28;20035;-71
2021/09/11 10:53:23;;;;;;;3.25;2.25;;;;;;;;;;5057737;28;19909;-71
2021/09/11 10:55:49;;;;;;;2.58;2.10;;;;;;;;;;5057744;28;20029;-71
2021/09/11 10:58:33;;;;;;;2.00;1.80;;;;;;;;;;5063597;28;20080;-71
2021/09/11 11:01:00;;;;;;;3.13;1.92;;;;;;;;;;5062975;28;20106;-71
2021/09/11 11:03:26;;;;;;;3.15;2.08;;;;;;;;;;5061759;28;20029;-66
2021/09/11 11:06:02;;;;;;;2.17;1.83;;;;;;;;;;5064202;28;20028;-67
2021/09/11 11:08:30;;;;;;;2.88;2.00;;;;;;;;;;5061186;28;20483;-73
2021/09/11 11:10:56;;;;;;;2.30;1.90;;;;;;;;;;5060268;28;20032;-71
2021/09/11 11:13:22;;;;;;;2.47;2.10;;;;;;;;;;5060427;28;20021;-73
2021/09/11 11:15:58;;;;;;;1.55;1.45;;;;;;;;;;5060648;28;20408;-74
2021/09/11 11:18:28;;;;;;;1.13;1.13;;;;;;;;;;5059873;28;20029;-67
2021/09/11 11:20:54;;;;;;;1.38;1.27;;;;;;;;;;5060455;28;20025;-69
2021/09/11 11:23:21;;;;;;;1.98;1.70;;;;;;;;;;5070512;28;20028;-73
2021/09/11 11:25:50;;;;;;;1.40;1.30;;;;;;;;;;5080606;28;20047;-70
2021/09/11 11:28:18;;;;;;;1.48;1.38;;;;;;;;;;5078796;28;20030;-69
2021/09/11 11:30:44;;;;;;;1.30;1.30;;;;;;;;;;5079432;28;20035;-74
2021/09/11 11:33:10;;;;;;;1.50;1.40;;;;;;;;;;5082549;28;20028;-65
2021/09/11 11:35:41;;;;;;;1.30;1.30;;;;;;;;;;5086085;28;20021;-65
2021/09/11 11:38:07;;;;;;;1.92;1.77;;;;;;;;;;5086014;28;20020;-65
2021/09/11 11:40:33;;;;;;;1.50;1.40;;;;;;;;;;5080706;28;20112;-73
2021/09/11 11:43:03;;;;;;;1.60;1.50;;;;;;;;;;5078292;28;20096;-72
2021/09/11 11:45:30;;;;;;;1.42;1.33;;;;;;;;;;5081980;28;20050;-69
2021/09/11 11:47:59;;;;;;;2.75;1.30;;;;;;;;;;5085746;28;20050;-66
2021/09/11 11:50:30;;;;;;;2.47;1.60;;;;;;;;;;5084907;28;20398;-67
2021/09/11 11:53:00;;;;;;;1.70;1.60;;;;;;;;;;5086414;28;20359;-69
2021/09/11 11:55:29;;;;;;;2.42;1.63;;;;;;;;;;5086531;28;20021;-67
2021/09/11 11:58:14;;;;;;;1.70;1.60;;;;;;;;;;5086164;28;20021;-66
2021/09/11 12:00:44;;;;;;;1.48;1.38;;;;;;;;;;5085586;28;20045;-65
2021/09/11 12:03:29;;;;;;;1.90;1.70;;;;;;;;;;5085638;28;20151;-66
2021/09/11 12:05:56;;;;;;;1.60;1.50;;;;;;;;;;5085451;28;20037;-67
2021/09/11 12:08:22;;;;;;;2.03;1.58;;;;;;;;;;5084122;28;20031;-66
2021/09/11 12:10:53;;;;;;;1.90;1.80;;;;;;;;;;5085491;28;20032;-71
2021/09/11 12:13:20;;;;;;;2.30;1.70;;;;;;;;;;5085641;28;20028;-68
2021/09/11 12:15:47;;;;;;;1.60;1.50;;;;;;;;;;5087636;28;20024;-66
2021/09/11 12:18:14;;;;;;;1.80;1.65;;;;;;;;;;5088368;28;20142;-66
2021/09/11 12:20:50;;;;;;;2.22;1.60;;;;;;;;;;5087798;28;20034;-69
2021/09/11 12:23:18;;;;;;;1.63;1.50;;;;;;;;;;5086749;28;20074;-66
2021/09/11 12:25:50;;;;;;;2.08;1.50;;;;;;;;;;5085781;28;20029;-67
2021/09/11 12:28:38;;;;;;;1.60;1.50;;;;;;;;;;5087624;28;20024;-66
2021/09/11 12:31:14;;;;;;;1.98;1.70;;;;;;;;;;5089022;28;20082;-70
2021/09/11 12:33:41;;;;;;;2.25;1.50;;;;;;;;;;5088585;28;20044;-66
2021/09/11 12:36:17;;;;;;;1.92;1.83;;;;;;;;;;5088922;28;20024;-65
2021/09/11 12:38:53;;;;;;;1.80;1.63;;;;;;;;;;5088759;28;20008;-71
2021/09/11 12:41:19;;;;;;;1.80;1.35;;;;;;;;;;5086462;28;20101;-67
2021/09/11 12:43:46;;;;;;;1.40;1.30;;;;;;;;;;5090877;28;20055;-69
2021/09/11 12:46:14;;;;;;;1.17;1.17;;;;;;;;;;5087315;28;20044;-65
2021/09/11 12:48:41;;;;;;;2.08;1.30;;;;;;;;;;5091243;28;20120;-65
2021/09/11 12:51:07;;;;;;;2.33;1.50;;;;;;;;;;5090263;28;20032;-66
2021/09/11 12:53:34;;;;;;;1.63;1.52;;;;;;;;;;5089632;28;20017;-65
2021/09/11 12:56:03;;;;;;;2.53;1.60;;;;;;;;;;5089526;28;20433;-67
2021/09/11 12:58:29;;;;;;;1.95;1.70;;;;;;;;;;5087677;28;20028;-66
2021/09/11 13:00:55;;;;;;;1.90;1.70;;;;;;;;;;5088081;28;20027;-69
2021/09/11 13:03:28;;;;;;;1.90;1.63;;;;;;;;;;5086309;28;20025;-69
2021/09/11 13:05:57;;;;;;;1.50;1.40;;;;;;;;;;5088949;28;20145;-67
2021/09/11 13:08:24;;;;;;;2.17;1.50;;;;;;;;;;5079738;28;20475;-67
2021/09/11 13:10:50;;;;;;;1.60;1.50;;;;;;;;;;5080180;28;20074;-74
2021/09/11 13:13:17;;;;;;;2.83;1.60;;;;;;;;;;5081919;28;20024;-75
2021/09/11 13:15:44;;;;;;;1.58;1.48;;;;;;;;;;5080764;28;20048;-65
2021/09/11 13:18:10;;;;;;;1.88;1.77;;;;;;;;;;5082788;28;20032;-70
2021/09/11 13:20:36;;;;;;;1.50;1.40;;;;;;;;;;5081642;28;20112;-77
2021/09/11 13:23:02;;;;;;;1.60;1.50;;;;;;;;;;5079863;28;20024;-74
2021/09/11 13:25:28;;;;;;;1.70;1.60;;;;;;;;;;5080062;28;20383;-77
2021/09/11 13:27:55;;;;;;;2.25;1.40;;;;;;;;;;5079394;28;20029;-77
2021/09/11 13:30:24;;;;;;;3.05;2.03;;;;;;;;;;5079857;28;20413;-69
2021/09/11 13:32:50;;;;;;;2.72;2.05;;;;;;;;;;5082185;28;20368;-71
2021/09/11 13:35:16;;;;;;;3.22;1.60;;;;;;;;;;5082688;28;20058;-74
2021/09/11 13:37:43;;;;;;;1.85;1.70;;;;;;;;;;5085961;28;20032;-64
2021/09/11 13:40:10;;;;;;;1.90;1.73;;;;;;;;;;5087954;28;20069;-66
2021/09/11 13:42:37;;;;;;;1.95;1.67;;;;;;;;;;5088104;28;20043;-67
2021/09/11 13:45:03;;;;;;;2.17;1.75;;;;;;;;;;5088228;28;20054;-67
2021/09/11 13:47:29;;;;;;;2.30;1.90;;;;;;;;;;5088244;28;20024;-65
2021/09/11 13:49:55;;;;;;;1.92;1.80;;;;;;;;;;5088179;28;20054;-65
2021/09/11 13:52:21;;;;;;;2.33;2.00;;;;;;;;;;5087825;28;20052;-65
2021/09/11 13:54:47;;;;;;;1.77;1.67;;;;;;;;;;5082783;28;20485;-67
2021/09/11 13:57:14;;;;;;;1.52;1.42;;;;;;;;;;5079729;28;20020;-75
2021/09/11 13:59:41;;;;;;;1.98;1.63;;;;;;;;;;5079441;28;20025;-77
2021/09/11 14:02:08;;;;;;;2.17;1.50;;;;;;;;;;5079004;28;20017;-69
2021/09/11 14:04:34;;;;;;;1.50;1.40;;;;;;;;;;5078384;28;20135;-77
2021/09/11 14:07:00;;;;;;;1.60;1.50;;;;;;;;;;5072822;28;20024;-78
2021/09/11 14:09:26;;;;;;;1.60;1.50;;;;;;;;;;5058525;28;20021;-71
2021/09/11 14:11:52;;;;;;;1.50;1.40;;;;;;;;;;5058298;28;20017;-76
2021/09/11 14:14:18;;;;;;;1.50;1.40;;;;;;;;;;5058338;28;20021;-75
2021/09/11 14:16:45;;;;;;;1.70;1.60;;;;;;;;;;5058130;28;20087;-69
2021/09/11 14:19:11;;;;;;;1.88;1.48;;;;;;;;;;5057939;28;20020;-72
2021/09/11 14:21:37;;;;;;;1.70;1.50;;;;;;;;;;5057825;28;20032;-74
2021/09/11 14:24:03;;;;;;;1.55;1.45;;;;;;;;;;5057698;28;20013;-65
2021/09/11 14:26:29;;;;;;;1.60;1.50;;;;;;;;;;5058400;28;20033;-71
2021/09/11 14:28:57;;;;;;;1.83;1.13;;;;;;;;;;5060727;28;20032;-75
2021/09/11 14:31:24;;;;;;;1.38;1.20;;;;;;;;;;5066157;28;20029;-73
2021/09/11 14:33:50;;;;;;;1.40;1.30;;;;;;;;;;5057868;28;20021;-77
2021/09/11 14:36:16;;;;;;;1.20;1.10;;;;;;;;;;5057530;28;20029;-77
2021/09/11 14:38:42;;;;;;;1.25;1.15;;;;;;;;;;5057812;28;20024;-66
2021/09/11 14:41:08;;;;;;;1.35;1.25;;;;;;;;;;5058173;28;20045;-76
2021/09/11 14:43:35;;;;;;;2.05;1.30;;;;;;;;;;5057592;28;20029;-77